Terminal Aerodrome Forecast
Issued by NWS

Home | Current Version | Previous Version | Text Only | Print | Product List | Glossary On
Versions: 1 2 3 4 5 6 7 8 9 10 11 12 13 14
567
FTUS43 KAPX 211120
TAFAPN
TAF
KAPN 211120Z 2112/2212 20005KT P6SM SCT200 WS012/25031KT
     FM211600 19010KT P6SM SCT200
     FM212000 17010G19KT P6SM BKN110
     FM212300 18010KT P6SM SCT140
     FM220200 17006KT P6SM BKN140 WS015/21036KT=

USA.gov is the U.S. government's official web portal to all federal, state and local government web resources and services.